Archival Weather

Abadan

Abadan, Iran (OIAA)

Report from: Tuesday, July 19, 2022 2:00 PM UTC
Current time: Wednesday, December 6, 2023 7:25 AM UTC

Current weather – Weather history – Daily summaries
Weather forecast

Temperature50.0°C (122.0°F)
Heat index44.9°C (112.8°F)
Dew point3.0°C (37.4°F)
Winds 10 kts (5.1 m/s, 11.5 mph) West-Northwest (300°)
Clouds Sky clear
Altimeter29.35 in.Hg (994 mB)
Relative humidity6 %
Density altitude4,612 ft. (1,406 m)
Remarks Ceiling and visibility OK
Flight conditions Visual Meteorological Conditions
Raw dataOIAA 191400Z 30010KT CAVOK 50/03 Q0994
An error has occurred. This application may no longer respond until reloaded. Reload 🗙